ESGG/GOT METAR and TAF weather

Enter ICAO airport designator
Station Type Date Time Source
ESGG METAR 2021/05/12 01:20 UTC NOAA

ESGG 120120Z 02012KT CAVOK 08/07 Q1006


Station Type Date Time Source
ESGG Decoded METAR 2021/05/12 01:20 UTC NOAA

Goteborg / Landvetter, Sweden (ESGG) 57-40N 012-18E
May 11, 2021 - 09:20 PM EDT / 2021.05.12 0120 UTC
Wind: from the NNE (020 degrees) at 14 MPH (12 KT):0
Visibility: greater than 7 mile(s):0
Temperature: 46 F (8 C)
Dew Point: 44 F (7 C)
Relative Humidity: 93%
Pressure (altimeter): 29.71 in. Hg (1006 hPa)
ob: ESGG 120120Z 02012KT CAVOK 08/07 Q1006
cycle: 1

Station Type Date Time Source
ESGG TAF 2021/05/11 18:09 UTC NOAA

TAF TAF ESGG 111730Z 1118/1218 03013KT 9999 BKN040 PROB40 1118/1120 SHRA BKN008 BKN030CB PROB40 1120/1203 2000 BR OVC003
TEMPO 1203/1210 4000 TSRA BKN008 BKN025CB
BECMG 1208/1210 VRB02KT PROB40 1216/1218 BKN012

Example: see airport list